sensor_id;sensor_type;location;lat;lon;timestamp;P1;durP1;ratioP1;P2;durP2;ratioP2
11054;SDS011;5580;50.106;8.702;2023-02-22T00:00:08;26.07;;;16.90;;
11054;SDS011;5580;50.106;8.702;2023-02-22T00:02:49;23.97;;;15.77;;
11054;SDS011;5580;50.106;8.702;2023-02-22T00:05:16;25.90;;;16.23;;
11054;SDS011;5580;50.106;8.702;2023-02-22T00:07:44;24.00;;;15.80;;
11054;SDS011;5580;50.106;8.702;2023-02-22T00:10:16;24.77;;;16.20;;
11054;SDS011;5580;50.106;8.702;2023-02-22T00:12:46;28.40;;;16.07;;
11054;SDS011;5580;50.106;8.702;2023-02-22T00:15:15;25.53;;;16.13;;
11054;SDS011;5580;50.106;8.702;2023-02-22T00:17:43;26.07;;;16.70;;
11054;SDS011;5580;50.106;8.702;2023-02-22T00:20:09;25.77;;;15.97;;
11054;SDS011;5580;50.106;8.702;2023-02-22T00:22:40;23.70;;;15.53;;
11054;SDS011;5580;50.106;8.702;2023-02-22T00:25:06;24.20;;;16.33;;
11054;SDS011;5580;50.106;8.702;2023-02-22T00:27:33;24.53;;;15.93;;
11054;SDS011;5580;50.106;8.702;2023-02-22T00:29:58;23.77;;;16.70;;
11054;SDS011;5580;50.106;8.702;2023-02-22T00:32:24;26.33;;;16.37;;
11054;SDS011;5580;50.106;8.702;2023-02-22T00:34:50;24.37;;;16.43;;
11054;SDS011;5580;50.106;8.702;2023-02-22T00:37:17;24.10;;;16.20;;
11054;SDS011;5580;50.106;8.702;2023-02-22T00:39:45;22.70;;;16.03;;
11054;SDS011;5580;50.106;8.702;2023-02-22T00:42:14;22.70;;;15.67;;
11054;SDS011;5580;50.106;8.702;2023-02-22T00:44:41;24.77;;;15.37;;
11054;SDS011;5580;50.106;8.702;2023-02-22T00:47:06;21.17;;;14.87;;
11054;SDS011;5580;50.106;8.702;2023-02-22T00:49:32;25.40;;;15.50;;
11054;SDS011;5580;50.106;8.702;2023-02-22T00:51:59;26.03;;;16.03;;
11054;SDS011;5580;50.106;8.702;2023-02-22T00:54:24;24.90;;;16.33;;
11054;SDS011;5580;50.106;8.702;2023-02-22T00:56:50;25.53;;;15.57;;
11054;SDS011;5580;50.106;8.702;2023-02-22T00:59:16;23.73;;;15.43;;
11054;SDS011;5580;50.106;8.702;2023-02-22T01:01:41;23.87;;;16.33;;
11054;SDS011;5580;50.106;8.702;2023-02-22T01:04:07;25.13;;;16.40;;
11054;SDS011;5580;50.106;8.702;2023-02-22T01:06:33;22.63;;;15.93;;
11054;SDS011;5580;50.106;8.702;2023-02-22T01:08:59;24.27;;;16.47;;
11054;SDS011;5580;50.106;8.702;2023-02-22T01:11:28;26.63;;;17.33;;
11054;SDS011;5580;50.106;8.702;2023-02-22T01:13:54;24.63;;;17.30;;
11054;SDS011;5580;50.106;8.702;2023-02-22T01:16:21;26.37;;;17.53;;
11054;SDS011;5580;50.106;8.702;2023-02-22T01:18:47;25.40;;;17.53;;
11054;SDS011;5580;50.106;8.702;2023-02-22T01:21:13;27.47;;;17.60;;
11054;SDS011;5580;50.106;8.702;2023-02-22T01:23:38;29.80;;;18.10;;
11054;SDS011;5580;50.106;8.702;2023-02-22T01:26:04;26.53;;;17.53;;
11054;SDS011;5580;50.106;8.702;2023-02-22T01:28:33;27.77;;;17.37;;
11054;SDS011;5580;50.106;8.702;2023-02-22T01:30:59;29.13;;;17.53;;
11054;SDS011;5580;50.106;8.702;2023-02-22T01:33:26;25.97;;;17.57;;
11054;SDS011;5580;50.106;8.702;2023-02-22T01:35:51;24.30;;;18.07;;
11054;SDS011;5580;50.106;8.702;2023-02-22T01:38:17;25.87;;;16.80;;
11054;SDS011;5580;50.106;8.702;2023-02-22T01:40:45;27.83;;;17.37;;
11054;SDS011;5580;50.106;8.702;2023-02-22T01:43:14;26.53;;;17.37;;
11054;SDS011;5580;50.106;8.702;2023-02-22T01:46:18;28.13;;;16.50;;
11054;SDS011;5580;50.106;8.702;2023-02-22T01:51:31;26.57;;;17.83;;
11054;SDS011;5580;50.106;8.702;2023-02-22T01:54:46;25.93;;;17.37;;
11054;SDS011;5580;50.106;8.702;2023-02-22T01:59:26;24.67;;;16.63;;
11054;SDS011;5580;50.106;8.702;2023-02-22T02:01:57;24.63;;;16.50;;
11054;SDS011;5580;50.106;8.702;2023-02-22T02:04:24;23.83;;;16.77;;
11054;SDS011;5580;50.106;8.702;2023-02-22T02:06:51;27.77;;;17.33;;
11054;SDS011;5580;50.106;8.702;2023-02-22T02:12:43;23.03;;;15.37;;
11054;SDS011;5580;50.106;8.702;2023-02-22T02:15:31;26.17;;;16.57;;
11054;SDS011;5580;50.106;8.702;2023-02-22T02:17:58;25.73;;;16.27;;
11054;SDS011;5580;50.106;8.702;2023-02-22T02:20:28;22.30;;;15.90;;
11054;SDS011;5580;50.106;8.702;2023-02-22T02:23:22;25.70;;;17.00;;
11054;SDS011;5580;50.106;8.702;2023-02-22T02:42:16;24.87;;;16.70;;
11054;SDS011;5580;50.106;8.702;2023-02-22T02:44:53;25.20;;;15.80;;
11054;SDS011;5580;50.106;8.702;2023-02-22T02:47:25;23.20;;;16.73;;
11054;SDS011;5580;50.106;8.702;2023-02-22T02:50:10;25.57;;;16.37;;
11054;SDS011;5580;50.106;8.702;2023-02-22T02:52:41;24.77;;;16.27;;
11054;SDS011;5580;50.106;8.702;2023-02-22T02:55:09;24.77;;;16.10;;
11054;SDS011;5580;50.106;8.702;2023-02-22T02:57:36;21.60;;;16.30;;
11054;SDS011;5580;50.106;8.702;2023-02-22T03:00:05;23.93;;;16.80;;
11054;SDS011;5580;50.106;8.702;2023-02-22T03:08:29;23.40;;;16.17;;
11054;SDS011;5580;50.106;8.702;2023-02-22T03:13:52;24.13;;;16.87;;
11054;SDS011;5580;50.106;8.702;2023-02-22T03:19:18;24.23;;;16.53;;
11054;SDS011;5580;50.106;8.702;2023-02-22T03:24:32;23.10;;;15.97;;
11054;SDS011;5580;50.106;8.702;2023-02-22T03:27:08;24.50;;;17.33;;
11054;SDS011;5580;50.106;8.702;2023-02-22T03:29:42;26.60;;;16.90;;
11054;SDS011;5580;50.106;8.702;2023-02-22T03:32:15;25.10;;;16.13;;
11054;SDS011;5580;50.106;8.702;2023-02-22T03:34:45;25.87;;;17.33;;
11054;SDS011;5580;50.106;8.702;2023-02-22T03:37:17;25.10;;;16.73;;
11054;SDS011;5580;50.106;8.702;2023-02-22T03:39:46;22.67;;;15.27;;
11054;SDS011;5580;50.106;8.702;2023-02-22T03:42:20;23.57;;;16.33;;
11054;SDS011;5580;50.106;8.702;2023-02-22T03:44:53;24.17;;;15.63;;
11054;SDS011;5580;50.106;8.702;2023-02-22T03:47:22;23.37;;;16.27;;
11054;SDS011;5580;50.106;8.702;2023-02-22T03:49:56;23.90;;;15.87;;
11054;SDS011;5580;50.106;8.702;2023-02-22T03:52:43;22.63;;;15.50;;
11054;SDS011;5580;50.106;8.702;2023-02-22T03:55:09;22.90;;;15.40;;
11054;SDS011;5580;50.106;8.702;2023-02-22T03:57:37;22.67;;;15.67;;
11054;SDS011;5580;50.106;8.702;2023-02-22T04:00:08;27.30;;;16.03;;
11054;SDS011;5580;50.106;8.702;2023-02-22T04:02:37;22.73;;;14.77;;
11054;SDS011;5580;50.106;8.702;2023-02-22T04:05:03;21.67;;;14.97;;
11054;SDS011;5580;50.106;8.702;2023-02-22T04:07:28;24.20;;;15.37;;
11054;SDS011;5580;50.106;8.702;2023-02-22T04:09:54;24.33;;;16.37;;
11054;SDS011;5580;50.106;8.702;2023-02-22T04:12:19;24.43;;;15.87;;
11054;SDS011;5580;50.106;8.702;2023-02-22T04:14:45;23.17;;;15.53;;
11054;SDS011;5580;50.106;8.702;2023-02-22T04:17:11;22.33;;;15.73;;
11054;SDS011;5580;50.106;8.702;2023-02-22T04:19:39;25.97;;;16.20;;
11054;SDS011;5580;50.106;8.702;2023-02-22T04:22:04;24.37;;;16.03;;
11054;SDS011;5580;50.106;8.702;2023-02-22T04:24:30;25.50;;;16.37;;
11054;SDS011;5580;50.106;8.702;2023-02-22T04:26:55;23.57;;;16.20;;
11054;SDS011;5580;50.106;8.702;2023-02-22T04:29:21;22.43;;;15.70;;
11054;SDS011;5580;50.106;8.702;2023-02-22T04:31:46;22.03;;;15.67;;
11054;SDS011;5580;50.106;8.702;2023-02-22T04:34:12;24.03;;;16.97;;
11054;SDS011;5580;50.106;8.702;2023-02-22T04:36:37;25.07;;;16.97;;
11054;SDS011;5580;50.106;8.702;2023-02-22T04:39:06;22.50;;;16.53;;
11054;SDS011;5580;50.106;8.702;2023-02-22T04:41:31;22.63;;;16.03;;
11054;SDS011;5580;50.106;8.702;2023-02-22T04:43:58;22.03;;;16.03;;
11054;SDS011;5580;50.106;8.702;2023-02-22T04:46:23;23.10;;;16.17;;
11054;SDS011;5580;50.106;8.702;2023-02-22T04:48:49;23.33;;;15.93;;
11054;SDS011;5580;50.106;8.702;2023-02-22T04:51:15;24.50;;;16.70;;
11054;SDS011;5580;50.106;8.702;2023-02-22T04:53:41;24.07;;;17.70;;
11054;SDS011;5580;50.106;8.702;2023-02-22T04:56:06;28.90;;;18.23;;
11054;SDS011;5580;50.106;8.702;2023-02-22T04:58:32;24.77;;;17.60;;
11054;SDS011;5580;50.106;8.702;2023-02-22T05:00:57;23.53;;;17.40;;
11054;SDS011;5580;50.106;8.702;2023-02-22T05:03:24;24.93;;;16.10;;
11054;SDS011;5580;50.106;8.702;2023-02-22T05:05:50;24.37;;;17.03;;
11054;SDS011;5580;50.106;8.702;2023-02-22T05:08:16;27.27;;;17.43;;
11054;SDS011;5580;50.106;8.702;2023-02-22T05:10:41;24.27;;;17.50;;
11054;SDS011;5580;50.106;8.702;2023-02-22T05:13:07;24.10;;;17.57;;
11054;SDS011;5580;50.106;8.702;2023-02-22T05:15:33;24.17;;;17.07;;
11054;SDS011;5580;50.106;8.702;2023-02-22T05:17:59;22.93;;;15.60;;
11054;SDS011;5580;50.106;8.702;2023-02-22T05:20:26;23.80;;;16.80;;
11054;SDS011;5580;50.106;8.702;2023-02-22T05:22:57;23.87;;;16.00;;
11054;SDS011;5580;50.106;8.702;2023-02-22T05:25:24;25.00;;;16.60;;
11054;SDS011;5580;50.106;8.702;2023-02-22T05:27:56;22.43;;;15.57;;
11054;SDS011;5580;50.106;8.702;2023-02-22T05:30:24;23.13;;;15.37;;
11054;SDS011;5580;50.106;8.702;2023-02-22T05:32:55;24.07;;;15.43;;
11054;SDS011;5580;50.106;8.702;2023-02-22T05:35:21;22.90;;;15.37;;
11054;SDS011;5580;50.106;8.702;2023-02-22T05:37:47;20.97;;;15.30;;
11054;SDS011;5580;50.106;8.702;2023-02-22T05:40:15;21.03;;;14.47;;
11054;SDS011;5580;50.106;8.702;2023-02-22T05:42:46;21.57;;;14.83;;
11054;SDS011;5580;50.106;8.702;2023-02-22T05:45:12;21.50;;;13.80;;
11054;SDS011;5580;50.106;8.702;2023-02-22T05:47:39;20.57;;;13.53;;
11054;SDS011;5580;50.106;8.702;2023-02-22T05:50:06;20.40;;;14.00;;
11054;SDS011;5580;50.106;8.702;2023-02-22T05:52:32;24.87;;;14.30;;
11054;SDS011;5580;50.106;8.702;2023-02-22T05:54:57;19.20;;;13.33;;
11054;SDS011;5580;50.106;8.702;2023-02-22T05:57:23;20.60;;;14.40;;
11054;SDS011;5580;50.106;8.702;2023-02-22T05:59:49;19.77;;;13.27;;
11054;SDS011;5580;50.106;8.702;2023-02-22T06:02:14;19.93;;;13.43;;
11054;SDS011;5580;50.106;8.702;2023-02-22T06:04:42;19.67;;;13.43;;
11054;SDS011;5580;50.106;8.702;2023-02-22T06:07:09;20.43;;;14.37;;
11054;SDS011;5580;50.106;8.702;2023-02-22T06:09:34;18.67;;;13.17;;
11054;SDS011;5580;50.106;8.702;2023-02-22T06:12:00;21.27;;;14.57;;
11054;SDS011;5580;50.106;8.702;2023-02-22T06:14:25;30.53;;;16.13;;
11054;SDS011;5580;50.106;8.702;2023-02-22T06:16:54;37.30;;;16.30;;
11054;SDS011;5580;50.106;8.702;2023-02-22T06:19:21;32.20;;;17.20;;
11054;SDS011;5580;50.106;8.702;2023-02-22T06:21:56;43.70;;;18.93;;
11054;SDS011;5580;50.106;8.702;2023-02-22T06:24:24;32.73;;;17.03;;
11054;SDS011;5580;50.106;8.702;2023-02-22T06:26:53;37.30;;;17.13;;
11054;SDS011;5580;50.106;8.702;2023-02-22T06:29:23;31.93;;;15.60;;
11054;SDS011;5580;50.106;8.702;2023-02-22T06:31:49;30.20;;;15.90;;
11054;SDS011;5580;50.106;8.702;2023-02-22T06:34:15;28.53;;;15.90;;
11054;SDS011;5580;50.106;8.702;2023-02-22T06:36:42;27.77;;;16.00;;
11054;SDS011;5580;50.106;8.702;2023-02-22T06:39:08;28.47;;;15.57;;
11054;SDS011;5580;50.106;8.702;2023-02-22T06:41:37;25.03;;;15.47;;
11054;SDS011;5580;50.106;8.702;2023-02-22T06:44:02;31.37;;;16.07;;
11054;SDS011;5580;50.106;8.702;2023-02-22T06:46:29;29.70;;;16.03;;
11054;SDS011;5580;50.106;8.702;2023-02-22T06:48:54;25.47;;;16.77;;
11054;SDS011;5580;50.106;8.702;2023-02-22T06:51:21;28.53;;;15.67;;
11054;SDS011;5580;50.106;8.702;2023-02-22T06:53:47;24.40;;;16.63;;
11054;SDS011;5580;50.106;8.702;2023-02-22T06:56:13;27.43;;;15.20;;
11054;SDS011;5580;50.106;8.702;2023-02-22T06:58:38;22.93;;;14.83;;
11054;SDS011;5580;50.106;8.702;2023-02-22T07:01:04;24.43;;;14.10;;
11054;SDS011;5580;50.106;8.702;2023-02-22T07:03:31;28.53;;;14.40;;
11054;SDS011;5580;50.106;8.702;2023-02-22T07:05:58;25.47;;;15.93;;
11054;SDS011;5580;50.106;8.702;2023-02-22T07:08:23;33.40;;;15.23;;
11054;SDS011;5580;50.106;8.702;2023-02-22T07:10:49;32.80;;;16.47;;
11054;SDS011;5580;50.106;8.702;2023-02-22T07:13:14;29.13;;;17.67;;
11054;SDS011;5580;50.106;8.702;2023-02-22T07:15:40;31.67;;;17.97;;
11054;SDS011;5580;50.106;8.702;2023-02-22T07:18:06;32.77;;;17.47;;
11054;SDS011;5580;50.106;8.702;2023-02-22T07:20:32;31.77;;;17.80;;
11054;SDS011;5580;50.106;8.702;2023-02-22T07:22:58;29.43;;;18.03;;
11054;SDS011;5580;50.106;8.702;2023-02-22T07:25:25;24.43;;;16.50;;
11054;SDS011;5580;50.106;8.702;2023-02-22T07:27:50;33.73;;;16.80;;
11054;SDS011;5580;50.106;8.702;2023-02-22T07:30:21;26.30;;;15.20;;
11054;SDS011;5580;50.106;8.702;2023-02-22T07:32:54;20.73;;;14.60;;
11054;SDS011;5580;50.106;8.702;2023-02-22T07:35:27;21.97;;;15.03;;
11054;SDS011;5580;50.106;8.702;2023-02-22T07:37:55;22.13;;;14.13;;
11054;SDS011;5580;50.106;8.702;2023-02-22T07:40:21;21.40;;;14.67;;
11054;SDS011;5580;50.106;8.702;2023-02-22T07:42:54;19.87;;;13.80;;
11054;SDS011;5580;50.106;8.702;2023-02-22T07:45:25;22.40;;;14.20;;
11054;SDS011;5580;50.106;8.702;2023-02-22T07:47:56;21.77;;;13.80;;
11054;SDS011;5580;50.106;8.702;2023-02-22T07:50:23;19.73;;;14.07;;
11054;SDS011;5580;50.106;8.702;2023-02-22T07:52:50;18.27;;;13.20;;
11054;SDS011;5580;50.106;8.702;2023-02-22T07:55:18;19.37;;;13.23;;
11054;SDS011;5580;50.106;8.702;2023-02-22T07:57:46;19.20;;;13.27;;
11054;SDS011;5580;50.106;8.702;2023-02-22T08:00:13;21.03;;;13.67;;
11054;SDS011;5580;50.106;8.702;2023-02-22T08:02:41;23.30;;;13.87;;
11054;SDS011;5580;50.106;8.702;2023-02-22T08:05:07;21.00;;;14.17;;
11054;SDS011;5580;50.106;8.702;2023-02-22T08:07:35;21.13;;;13.70;;
11054;SDS011;5580;50.106;8.702;2023-02-22T08:10:02;21.30;;;13.80;;
11054;SDS011;5580;50.106;8.702;2023-02-22T08:12:31;22.83;;;13.80;;
11054;SDS011;5580;50.106;8.702;2023-02-22T08:15:00;22.87;;;14.17;;
11054;SDS011;5580;50.106;8.702;2023-02-22T08:17:27;23.47;;;15.13;;
11054;SDS011;5580;50.106;8.702;2023-02-22T08:19:52;26.90;;;15.53;;
11054;SDS011;5580;50.106;8.702;2023-02-22T08:22:18;25.70;;;16.27;;
11054;SDS011;5580;50.106;8.702;2023-02-22T08:24:43;27.73;;;15.80;;
11054;SDS011;5580;50.106;8.702;2023-02-22T08:27:10;25.53;;;14.90;;
11054;SDS011;5580;50.106;8.702;2023-02-22T08:29:35;25.50;;;15.60;;
11054;SDS011;5580;50.106;8.702;2023-02-22T08:32:01;26.03;;;16.10;;
11054;SDS011;5580;50.106;8.702;2023-02-22T08:34:27;28.37;;;17.50;;
11054;SDS011;5580;50.106;8.702;2023-02-22T08:36:53;32.60;;;18.37;;
11054;SDS011;5580;50.106;8.702;2023-02-22T08:39:19;30.57;;;18.50;;
11054;SDS011;5580;50.106;8.702;2023-02-22T08:41:45;35.53;;;18.87;;
11054;SDS011;5580;50.106;8.702;2023-02-22T08:44:10;38.77;;;19.17;;
11054;SDS011;5580;50.106;8.702;2023-02-22T08:46:36;44.97;;;20.80;;
11054;SDS011;5580;50.106;8.702;2023-02-22T08:49:03;44.07;;;20.80;;
11054;SDS011;5580;50.106;8.702;2023-02-22T08:51:33;51.83;;;21.17;;
11054;SDS011;5580;50.106;8.702;2023-02-22T08:53:59;56.40;;;22.43;;
11054;SDS011;5580;50.106;8.702;2023-02-22T08:56:25;60.30;;;22.17;;
11054;SDS011;5580;50.106;8.702;2023-02-22T08:58:50;60.77;;;23.57;;
11054;SDS011;5580;50.106;8.702;2023-02-22T09:01:16;61.20;;;23.20;;
11054;SDS011;5580;50.106;8.702;2023-02-22T09:03:41;54.73;;;20.83;;
11054;SDS011;5580;50.106;8.702;2023-02-22T09:06:11;53.83;;;22.77;;
11054;SDS011;5580;50.106;8.702;2023-02-22T09:08:37;45.67;;;22.57;;
11054;SDS011;5580;50.106;8.702;2023-02-22T09:11:02;60.80;;;24.83;;
11054;SDS011;5580;50.106;8.702;2023-02-22T09:13:28;46.03;;;23.47;;
11054;SDS011;5580;50.106;8.702;2023-02-22T09:15:54;41.63;;;23.63;;
11054;SDS011;5580;50.106;8.702;2023-02-22T09:18:19;44.30;;;23.27;;
11054;SDS011;5580;50.106;8.702;2023-02-22T09:20:45;39.87;;;22.77;;
11054;SDS011;5580;50.106;8.702;2023-02-22T09:23:10;40.27;;;22.90;;
11054;SDS011;5580;50.106;8.702;2023-02-22T09:25:36;45.13;;;21.73;;
11054;SDS011;5580;50.106;8.702;2023-02-22T09:28:04;34.30;;;21.03;;
11054;SDS011;5580;50.106;8.702;2023-02-22T09:30:34;32.20;;;20.90;;
11054;SDS011;5580;50.106;8.702;2023-02-22T09:33:02;33.20;;;19.97;;
11054;SDS011;5580;50.106;8.702;2023-02-22T09:35:38;34.20;;;19.43;;
11054;SDS011;5580;50.106;8.702;2023-02-22T09:38:10;35.07;;;20.10;;
11054;SDS011;5580;50.106;8.702;2023-02-22T09:41:22;31.80;;;19.23;;
11054;SDS011;5580;50.106;8.702;2023-02-22T09:44:08;34.60;;;19.97;;
11054;SDS011;5580;50.106;8.702;2023-02-22T09:46:52;33.27;;;20.30;;
11054;SDS011;5580;50.106;8.702;2023-02-22T09:49:22;31.73;;;19.63;;
11054;SDS011;5580;50.106;8.702;2023-02-22T09:54:35;36.80;;;20.30;;
11054;SDS011;5580;50.106;8.702;2023-02-22T09:57:05;35.80;;;21.10;;
11054;SDS011;5580;50.106;8.702;2023-02-22T09:59:43;34.50;;;20.07;;
11054;SDS011;5580;50.106;8.702;2023-02-22T10:05:07;38.10;;;21.27;;
11054;SDS011;5580;50.106;8.702;2023-02-22T10:07:43;37.03;;;20.87;;
11054;SDS011;5580;50.106;8.702;2023-02-22T10:10:31;34.97;;;21.67;;
11054;SDS011;5580;50.106;8.702;2023-02-22T10:18:42;34.67;;;22.00;;
11054;SDS011;5580;50.106;8.702;2023-02-22T10:26:41;34.07;;;22.53;;
11054;SDS011;5580;50.106;8.702;2023-02-22T10:31:43;35.30;;;23.23;;
11054;SDS011;5580;50.106;8.702;2023-02-22T10:34:20;35.33;;;23.17;;
11054;SDS011;5580;50.106;8.702;2023-02-22T10:36:50;36.17;;;23.97;;
11054;SDS011;5580;50.106;8.702;2023-02-22T10:39:31;32.47;;;22.43;;
11054;SDS011;5580;50.106;8.702;2023-02-22T10:42:05;36.73;;;24.00;;
11054;SDS011;5580;50.106;8.702;2023-02-22T10:44:33;33.83;;;23.33;;
11054;SDS011;5580;50.106;8.702;2023-02-22T10:47:01;38.93;;;23.30;;
11054;SDS011;5580;50.106;8.702;2023-02-22T10:49:37;33.23;;;23.37;;
11054;SDS011;5580;50.106;8.702;2023-02-22T10:52:12;33.67;;;23.33;;
11054;SDS011;5580;50.106;8.702;2023-02-22T10:54:46;35.53;;;24.10;;
11054;SDS011;5580;50.106;8.702;2023-02-22T10:57:15;33.40;;;22.30;;
11054;SDS011;5580;50.106;8.702;2023-02-22T10:59:46;34.87;;;22.87;;
11054;SDS011;5580;50.106;8.702;2023-02-22T11:04:51;31.63;;;22.10;;
11054;SDS011;5580;50.106;8.702;2023-02-22T11:07:23;30.70;;;21.67;;
11054;SDS011;5580;50.106;8.702;2023-02-22T11:12:18;29.33;;;21.43;;
11054;SDS011;5580;50.106;8.702;2023-02-22T11:14:45;32.10;;;21.77;;
11054;SDS011;5580;50.106;8.702;2023-02-22T11:17:12;30.97;;;21.50;;
11054;SDS011;5580;50.106;8.702;2023-02-22T11:19:45;31.80;;;20.67;;
11054;SDS011;5580;50.106;8.702;2023-02-22T11:22:17;30.43;;;21.50;;
11054;SDS011;5580;50.106;8.702;2023-02-22T11:24:48;29.37;;;21.07;;
11054;SDS011;5580;50.106;8.702;2023-02-22T11:32:41;31.50;;;21.43;;
11054;SDS011;5580;50.106;8.702;2023-02-22T11:35:19;31.70;;;22.13;;
11054;SDS011;5580;50.106;8.702;2023-02-22T11:37:48;29.57;;;21.43;;
11054;SDS011;5580;50.106;8.702;2023-02-22T11:40:16;34.67;;;22.57;;
11054;SDS011;5580;50.106;8.702;2023-02-22T11:42:46;30.33;;;21.97;;
11054;SDS011;5580;50.106;8.702;2023-02-22T11:45:32;34.93;;;24.23;;
11054;SDS011;5580;50.106;8.702;2023-02-22T11:48:00;32.27;;;22.77;;
11054;SDS011;5580;50.106;8.702;2023-02-22T11:50:29;32.70;;;23.10;;
11054;SDS011;5580;50.106;8.702;2023-02-22T12:12:31;31.27;;;23.50;;
11054;SDS011;5580;50.106;8.702;2023-02-22T12:15:01;33.63;;;23.83;;
11054;SDS011;5580;50.106;8.702;2023-02-22T12:17:37;31.77;;;24.10;;
11054;SDS011;5580;50.106;8.702;2023-02-22T12:20:30;31.97;;;23.40;;
11054;SDS011;5580;50.106;8.702;2023-02-22T12:28:52;30.10;;;22.63;;
11054;SDS011;5580;50.106;8.702;2023-02-22T12:31:42;30.90;;;22.63;;
11054;SDS011;5580;50.106;8.702;2023-02-22T12:37:36;36.10;;;22.80;;
11054;SDS011;5580;50.106;8.702;2023-02-22T12:42:52;34.40;;;23.27;;
11054;SDS011;5580;50.106;8.702;2023-02-22T12:45:33;34.40;;;23.77;;
11054;SDS011;5580;50.106;8.702;2023-02-22T12:48:23;32.30;;;23.47;;
11054;SDS011;5580;50.106;8.702;2023-02-22T12:50:58;34.07;;;22.20;;
11054;SDS011;5580;50.106;8.702;2023-02-22T12:53:43;33.23;;;23.00;;
11054;SDS011;5580;50.106;8.702;2023-02-22T12:56:19;35.37;;;24.47;;
11054;SDS011;5580;50.106;8.702;2023-02-22T12:59:13;31.60;;;23.00;;
11054;SDS011;5580;50.106;8.702;2023-02-22T13:01:54;32.30;;;22.37;;
11054;SDS011;5580;50.106;8.702;2023-02-22T13:04:24;30.57;;;21.37;;
11054;SDS011;5580;50.106;8.702;2023-02-22T13:09:39;33.13;;;22.23;;
11054;SDS011;5580;50.106;8.702;2023-02-22T13:15:07;29.20;;;20.67;;
11054;SDS011;5580;50.106;8.702;2023-02-22T13:23:12;29.67;;;20.13;;
11054;SDS011;5580;50.106;8.702;2023-02-22T13:25:52;26.60;;;19.37;;
11054;SDS011;5580;50.106;8.702;2023-02-22T13:28:29;26.60;;;17.97;;
11054;SDS011;5580;50.106;8.702;2023-02-22T13:31:07;24.57;;;17.70;;
11054;SDS011;5580;50.106;8.702;2023-02-22T13:41:54;25.27;;;17.03;;
11054;SDS011;5580;50.106;8.702;2023-02-22T13:47:34;28.07;;;16.77;;
11054;SDS011;5580;50.106;8.702;2023-02-22T13:50:14;21.40;;;15.07;;
11054;SDS011;5580;50.106;8.702;2023-02-22T13:52:53;23.00;;;14.97;;
11054;SDS011;5580;50.106;8.702;2023-02-22T13:55:22;22.60;;;15.27;;
11054;SDS011;5580;50.106;8.702;2023-02-22T13:57:58;20.50;;;14.20;;
11054;SDS011;5580;50.106;8.702;2023-02-22T14:13:09;19.43;;;13.77;;
11054;SDS011;5580;50.106;8.702;2023-02-22T14:15:50;20.17;;;13.70;;
11054;SDS011;5580;50.106;8.702;2023-02-22T14:18:22;20.20;;;13.60;;
11054;SDS011;5580;50.106;8.702;2023-02-22T14:21:22;22.13;;;14.30;;
11054;SDS011;5580;50.106;8.702;2023-02-22T14:23:48;22.33;;;14.47;;
11054;SDS011;5580;50.106;8.702;2023-02-22T14:26:29;21.53;;;13.47;;
11054;SDS011;5580;50.106;8.702;2023-02-22T14:28:58;22.23;;;13.23;;
11054;SDS011;5580;50.106;8.702;2023-02-22T14:31:25;22.13;;;13.20;;
11054;SDS011;5580;50.106;8.702;2023-02-22T14:37:19;19.40;;;13.67;;
11054;SDS011;5580;50.106;8.702;2023-02-22T14:40:03;20.33;;;13.17;;
11054;SDS011;5580;50.106;8.702;2023-02-22T14:42:57;20.10;;;13.43;;
11054;SDS011;5580;50.106;8.702;2023-02-22T14:45:28;19.20;;;13.17;;
11054;SDS011;5580;50.106;8.702;2023-02-22T14:50:58;21.67;;;13.77;;
11054;SDS011;5580;50.106;8.702;2023-02-22T14:53:48;19.07;;;13.43;;
11054;SDS011;5580;50.106;8.702;2023-02-22T14:56:27;22.67;;;13.93;;
11054;SDS011;5580;50.106;8.702;2023-02-22T15:03:54;23.60;;;14.20;;
11054;SDS011;5580;50.106;8.702;2023-02-22T15:06:39;21.77;;;14.73;;
11054;SDS011;5580;50.106;8.702;2023-02-22T15:09:07;22.30;;;15.53;;
11054;SDS011;5580;50.106;8.702;2023-02-22T15:11:38;24.33;;;15.77;;
11054;SDS011;5580;50.106;8.702;2023-02-22T15:17:05;24.87;;;15.80;;
11054;SDS011;5580;50.106;8.702;2023-02-22T15:19:36;22.70;;;15.80;;
11054;SDS011;5580;50.106;8.702;2023-02-22T15:22:04;28.63;;;17.90;;
11054;SDS011;5580;50.106;8.702;2023-02-22T15:24:33;24.03;;;16.37;;
11054;SDS011;5580;50.106;8.702;2023-02-22T15:27:05;23.73;;;17.23;;
11054;SDS011;5580;50.106;8.702;2023-02-22T15:29:36;26.60;;;17.23;;
11054;SDS011;5580;50.106;8.702;2023-02-22T15:32:49;25.03;;;17.60;;
11054;SDS011;5580;50.106;8.702;2023-02-22T15:34:49;26.23;;;17.93;;
11054;SDS011;5580;50.106;8.702;2023-02-22T15:37:19;26.33;;;18.27;;
11054;SDS011;5580;50.106;8.702;2023-02-22T15:39:49;29.10;;;18.23;;
11054;SDS011;5580;50.106;8.702;2023-02-22T15:42:23;24.83;;;17.53;;
11054;SDS011;5580;50.106;8.702;2023-02-22T15:44:50;25.97;;;17.07;;
11054;SDS011;5580;50.106;8.702;2023-02-22T15:47:26;25.93;;;18.00;;
11054;SDS011;5580;50.106;8.702;2023-02-22T15:50:15;23.87;;;16.87;;
11054;SDS011;5580;50.106;8.702;2023-02-22T15:55:22;31.50;;;18.77;;
11054;SDS011;5580;50.106;8.702;2023-02-22T15:57:57;28.23;;;17.70;;
11054;SDS011;5580;50.106;8.702;2023-02-22T16:03:00;25.33;;;17.83;;
11054;SDS011;5580;50.106;8.702;2023-02-22T16:05:43;26.80;;;18.23;;
11054;SDS011;5580;50.106;8.702;2023-02-22T16:08:15;29.37;;;18.43;;
11054;SDS011;5580;50.106;8.702;2023-02-22T16:10:43;29.07;;;18.37;;
11054;SDS011;5580;50.106;8.702;2023-02-22T16:13:37;28.77;;;19.40;;
11054;SDS011;5580;50.106;8.702;2023-02-22T16:18:46;28.47;;;18.87;;
11054;SDS011;5580;50.106;8.702;2023-02-22T16:21:17;30.23;;;19.20;;
11054;SDS011;5580;50.106;8.702;2023-02-22T16:23:52;29.03;;;19.23;;
11054;SDS011;5580;50.106;8.702;2023-02-22T16:26:24;28.77;;;20.10;;
11054;SDS011;5580;50.106;8.702;2023-02-22T16:28:58;29.87;;;19.17;;
11054;SDS011;5580;50.106;8.702;2023-02-22T16:31:27;33.60;;;20.33;;
11054;SDS011;5580;50.106;8.702;2023-02-22T16:33:57;29.80;;;20.70;;
11054;SDS011;5580;50.106;8.702;2023-02-22T16:36:35;27.97;;;19.30;;
11054;SDS011;5580;50.106;8.702;2023-02-22T16:39:04;31.40;;;21.00;;
11054;SDS011;5580;50.106;8.702;2023-02-22T16:41:35;32.67;;;21.10;;
11054;SDS011;5580;50.106;8.702;2023-02-22T16:44:01;34.07;;;21.40;;
11054;SDS011;5580;50.106;8.702;2023-02-22T16:46:27;33.87;;;22.00;;
11054;SDS011;5580;50.106;8.702;2023-02-22T16:48:53;32.30;;;21.57;;
11054;SDS011;5580;50.106;8.702;2023-02-22T16:51:24;33.13;;;22.00;;
11054;SDS011;5580;50.106;8.702;2023-02-22T16:53:52;31.20;;;21.13;;
11054;SDS011;5580;50.106;8.702;2023-02-22T16:56:20;35.40;;;21.77;;
11054;SDS011;5580;50.106;8.702;2023-02-22T16:58:50;32.97;;;22.10;;
11054;SDS011;5580;50.106;8.702;2023-02-22T17:01:17;37.00;;;23.83;;
11054;SDS011;5580;50.106;8.702;2023-02-22T17:03:43;30.20;;;21.83;;
11054;SDS011;5580;50.106;8.702;2023-02-22T17:06:10;36.33;;;22.87;;
11054;SDS011;5580;50.106;8.702;2023-02-22T17:08:37;35.80;;;22.60;;
11054;SDS011;5580;50.106;8.702;2023-02-22T17:11:03;31.97;;;21.57;;
11054;SDS011;5580;50.106;8.702;2023-02-22T17:13:30;33.83;;;22.30;;
11054;SDS011;5580;50.106;8.702;2023-02-22T17:15:55;33.10;;;22.27;;
11054;SDS011;5580;50.106;8.702;2023-02-22T17:18:22;32.83;;;22.77;;
11054;SDS011;5580;50.106;8.702;2023-02-22T17:20:51;33.33;;;22.13;;
11054;SDS011;5580;50.106;8.702;2023-02-22T17:23:19;34.63;;;22.67;;
11054;SDS011;5580;50.106;8.702;2023-02-22T17:25:50;37.07;;;23.10;;
11054;SDS011;5580;50.106;8.702;2023-02-22T17:28:17;32.43;;;22.47;;